sensor_id;sensor_type;location;lat;lon;timestamp;pressure;altitude;pressure_sealevel;temperature;humidity
49194;BME280;35029;50.804;12.866;2023-05-01T00:00:03;98039.69;;;4.82;83.43
49194;BME280;35029;50.804;12.866;2023-05-01T00:02:29;98064.91;;;4.93;84.13
49194;BME280;35029;50.804;12.866;2023-05-01T00:04:55;98040.28;;;4.76;83.91
49194;BME280;35029;50.804;12.866;2023-05-01T00:07:21;98054.00;;;4.87;84.44
49194;BME280;35029;50.804;12.866;2023-05-01T00:09:47;98027.06;;;4.67;84.00
49194;BME280;35029;50.804;12.866;2023-05-01T00:12:13;98046.38;;;4.76;84.63
49194;BME280;35029;50.804;12.866;2023-05-01T00:14:38;98044.03;;;4.73;84.25
49194;BME280;35029;50.804;12.866;2023-05-01T00:17:04;98039.53;;;4.83;84.63
49194;BME280;35029;50.804;12.866;2023-05-01T00:19:30;98043.97;;;4.83;83.83
49194;BME280;35029;50.804;12.866;2023-05-01T00:21:56;98039.78;;;4.72;83.29
49194;BME280;35029;50.804;12.866;2023-05-01T00:24:21;98024.16;;;4.70;84.96
49194;BME280;35029;50.804;12.866;2023-05-01T00:26:47;98023.31;;;4.70;84.29
49194;BME280;35029;50.804;12.866;2023-05-01T00:29:12;98031.44;;;4.77;82.48
49194;BME280;35029;50.804;12.866;2023-05-01T00:31:40;98034.81;;;4.69;84.13
49194;BME280;35029;50.804;12.866;2023-05-01T00:34:07;97990.78;;;4.45;83.15
49194;BME280;35029;50.804;12.866;2023-05-01T00:36:32;98039.09;;;4.70;83.86
49194;BME280;35029;50.804;12.866;2023-05-01T00:38:58;98025.53;;;4.74;82.91
49194;BME280;35029;50.804;12.866;2023-05-01T00:41:23;98027.06;;;4.67;83.20
49194;BME280;35029;50.804;12.866;2023-05-01T00:43:49;97998.13;;;4.41;84.24
49194;BME280;35029;50.804;12.866;2023-05-01T00:46:14;98026.34;;;4.57;83.74
49194;BME280;35029;50.804;12.866;2023-05-01T00:48:40;98002.09;;;4.45;84.06
49194;BME280;35029;50.804;12.866;2023-05-01T00:51:06;97996.25;;;4.33;84.87
49194;BME280;35029;50.804;12.866;2023-05-01T00:53:33;98014.34;;;4.36;84.66
49194;BME280;35029;50.804;12.866;2023-05-01T00:55:59;98017.09;;;4.35;84.58
49194;BME280;35029;50.804;12.866;2023-05-01T00:58:25;98011.69;;;4.18;85.36
49194;BME280;35029;50.804;12.866;2023-05-01T01:00:51;98008.94;;;4.20;85.67
49194;BME280;35029;50.804;12.866;2023-05-01T01:03:18;98004.50;;;4.20;85.54
49194;BME280;35029;50.804;12.866;2023-05-01T01:05:56;98000.06;;;4.21;85.76
49194;BME280;35029;50.804;12.866;2023-05-01T01:08:28;97981.31;;;4.16;84.82
49194;BME280;35029;50.804;12.866;2023-05-01T01:13:31;97989.00;;;3.99;87.55
49194;BME280;35029;50.804;12.866;2023-05-01T01:16:15;97987.69;;;4.13;86.29
49194;BME280;35029;50.804;12.866;2023-05-01T01:18:52;97979.44;;;4.08;85.35
49194;BME280;35029;50.804;12.866;2023-05-01T01:21:37;97987.78;;;4.21;86.70
49194;BME280;35029;50.804;12.866;2023-05-01T01:24:11;97984.31;;;4.03;85.26
49194;BME280;35029;50.804;12.866;2023-05-01T01:29:47;97967.66;;;3.94;85.99
49194;BME280;35029;50.804;12.866;2023-05-01T01:35:15;97978.97;;;3.95;87.55
49194;BME280;35029;50.804;12.866;2023-05-01T01:38:35;97982.66;;;4.02;86.33
49194;BME280;35029;50.804;12.866;2023-05-01T01:41:13;97982.13;;;3.98;85.94
49194;BME280;35029;50.804;12.866;2023-05-01T01:43:52;97950.50;;;3.82;86.02
49194;BME280;35029;50.804;12.866;2023-05-01T01:46:22;97971.56;;;3.90;85.41
49194;BME280;35029;50.804;12.866;2023-05-01T01:48:49;97972.13;;;3.84;87.06
49194;BME280;35029;50.804;12.866;2023-05-01T01:51:18;97969.34;;;3.85;86.56
49194;BME280;35029;50.804;12.866;2023-05-01T01:53:50;97960.53;;;3.86;86.42
49194;BME280;35029;50.804;12.866;2023-05-01T01:56:19;97966.06;;;3.83;87.29
49194;BME280;35029;50.804;12.866;2023-05-01T01:58:46;97964.81;;;3.87;86.47
49194;BME280;35029;50.804;12.866;2023-05-01T02:01:14;97967.69;;;3.84;86.80
49194;BME280;35029;50.804;12.866;2023-05-01T02:03:42;97961.69;;;3.74;87.79
49194;BME280;35029;50.804;12.866;2023-05-01T02:06:13;97955.72;;;3.82;87.21
49194;BME280;35029;50.804;12.866;2023-05-01T02:08:41;97935.91;;;3.69;87.09
49194;BME280;35029;50.804;12.866;2023-05-01T02:11:10;97957.41;;;3.73;86.30
49194;BME280;35029;50.804;12.866;2023-05-01T02:13:39;97939.94;;;3.64;87.45
49194;BME280;35029;50.804;12.866;2023-05-01T02:16:05;97942.41;;;3.65;88.29
49194;BME280;35029;50.804;12.866;2023-05-01T02:18:31;97936.97;;;3.59;88.56
49194;BME280;35029;50.804;12.866;2023-05-01T02:20:58;97927.59;;;3.56;88.60
49194;BME280;35029;50.804;12.866;2023-05-01T02:23:26;97925.63;;;3.58;88.96
49194;BME280;35029;50.804;12.866;2023-05-01T02:25:53;97922.38;;;3.46;88.33
49194;BME280;35029;50.804;12.866;2023-05-01T02:28:23;97914.00;;;3.43;89.36
49194;BME280;35029;50.804;12.866;2023-05-01T02:30:50;97926.06;;;3.53;87.63
49194;BME280;35029;50.804;12.866;2023-05-01T02:33:16;97923.31;;;3.55;87.98
49194;BME280;35029;50.804;12.866;2023-05-01T02:35:43;97916.84;;;3.49;88.55
49194;BME280;35029;50.804;12.866;2023-05-01T02:38:12;97916.16;;;3.47;88.69
49194;BME280;35029;50.804;12.866;2023-05-01T02:40:43;97899.59;;;3.29;88.14
49194;BME280;35029;50.804;12.866;2023-05-01T02:43:15;97887.28;;;3.29;88.99
49194;BME280;35029;50.804;12.866;2023-05-01T02:45:44;97904.06;;;3.36;89.95
49194;BME280;35029;50.804;12.866;2023-05-01T02:48:14;97901.84;;;3.42;88.02
49194;BME280;35029;50.804;12.866;2023-05-01T02:50:45;97897.06;;;3.37;89.17
49194;BME280;35029;50.804;12.866;2023-05-01T02:53:12;97876.81;;;3.29;88.92
49194;BME280;35029;50.804;12.866;2023-05-01T02:55:52;97878.97;;;3.34;88.86
49194;BME280;35029;50.804;12.866;2023-05-01T02:58:19;97890.72;;;3.30;88.71
49194;BME280;35029;50.804;12.866;2023-05-01T03:00:47;97888.09;;;3.30;88.96
49194;BME280;35029;50.804;12.866;2023-05-01T03:03:14;97853.19;;;3.11;89.08
49194;BME280;35029;50.804;12.866;2023-05-01T03:05:41;97881.25;;;3.29;89.21
49194;BME280;35029;50.804;12.866;2023-05-01T03:08:07;97877.94;;;3.27;90.16
49194;BME280;35029;50.804;12.866;2023-05-01T03:10:38;97876.66;;;3.31;89.59
49194;BME280;35029;50.804;12.866;2023-05-01T03:13:04;97863.63;;;3.21;88.37
49194;BME280;35029;50.804;12.866;2023-05-01T03:15:30;97882.06;;;3.29;89.65
49194;BME280;35029;50.804;12.866;2023-05-01T03:17:55;97877.06;;;3.36;89.13
49194;BME280;35029;50.804;12.866;2023-05-01T03:20:21;97872.69;;;3.27;89.18
49194;BME280;35029;50.804;12.866;2023-05-01T03:22:47;97864.28;;;3.23;89.92
49194;BME280;35029;50.804;12.866;2023-05-01T03:25:12;97844.63;;;3.09;90.91
49194;BME280;35029;50.804;12.866;2023-05-01T03:27:38;97836.63;;;3.11;90.66
49194;BME280;35029;50.804;12.866;2023-05-01T03:30:04;97842.81;;;3.19;90.95
49194;BME280;35029;50.804;12.866;2023-05-01T03:32:34;97847.91;;;3.21;90.57
49194;BME280;35029;50.804;12.866;2023-05-01T03:35:01;97843.81;;;3.09;90.23
49194;BME280;35029;50.804;12.866;2023-05-01T03:37:32;97841.34;;;3.07;91.25
49194;BME280;35029;50.804;12.866;2023-05-01T03:40:02;97833.34;;;3.09;91.04
49194;BME280;35029;50.804;12.866;2023-05-01T03:42:51;97827.56;;;3.05;90.77
49194;BME280;35029;50.804;12.866;2023-05-01T03:45:20;97841.88;;;3.11;90.13
49194;BME280;35029;50.804;12.866;2023-05-01T03:47:48;97828.16;;;2.99;90.25
49194;BME280;35029;50.804;12.866;2023-05-01T03:50:14;97837.78;;;3.08;90.59
49194;BME280;35029;50.804;12.866;2023-05-01T03:52:44;97826.91;;;3.03;90.57
49194;BME280;35029;50.804;12.866;2023-05-01T03:55:10;97836.38;;;3.14;90.84
49194;BME280;35029;50.804;12.866;2023-05-01T03:57:40;97840.50;;;3.16;91.28
49194;BME280;35029;50.804;12.866;2023-05-01T04:00:07;97839.75;;;3.24;90.21
49194;BME280;35029;50.804;12.866;2023-05-01T04:02:44;97847.91;;;3.21;89.61
49194;BME280;35029;50.804;12.866;2023-05-01T04:05:14;97849.06;;;3.09;91.02
49194;BME280;35029;50.804;12.866;2023-05-01T04:07:44;97845.44;;;3.19;91.07
49194;BME280;35029;50.804;12.866;2023-05-01T04:10:10;97850.38;;;3.22;91.55
49194;BME280;35029;50.804;12.866;2023-05-01T04:12:43;97855.69;;;3.31;91.43
49194;BME280;35029;50.804;12.866;2023-05-01T04:15:08;97838.69;;;3.17;91.14
49194;BME280;35029;50.804;12.866;2023-05-01T04:17:35;97845.22;;;3.31;91.73
49194;BME280;35029;50.804;12.866;2023-05-01T04:20:01;97855.63;;;3.41;91.21
49194;BME280;35029;50.804;12.866;2023-05-01T04:22:29;97852.88;;;3.42;91.28
49194;BME280;35029;50.804;12.866;2023-05-01T04:24:55;97837.06;;;3.34;92.20
49194;BME280;35029;50.804;12.866;2023-05-01T04:27:23;97858.50;;;3.65;91.57
49194;BME280;35029;50.804;12.866;2023-05-01T04:29:50;97851.09;;;3.61;91.53
49194;BME280;35029;50.804;12.866;2023-05-01T04:32:17;97856.44;;;3.69;92.11
49194;BME280;35029;50.804;12.866;2023-05-01T04:34:42;97832.09;;;3.59;92.30
49194;BME280;35029;50.804;12.866;2023-05-01T04:37:10;97856.50;;;3.77;92.36
49194;BME280;35029;50.804;12.866;2023-05-01T04:39:36;97858.47;;;3.75;91.95
49194;BME280;35029;50.804;12.866;2023-05-01T04:42:03;97854.94;;;3.84;93.15
49194;BME280;35029;50.804;12.866;2023-05-01T04:44:29;97859.00;;;3.97;93.13
49194;BME280;35029;50.804;12.866;2023-05-01T04:46:55;97846.09;;;4.03;94.18
49194;BME280;35029;50.804;12.866;2023-05-01T04:49:21;97853.53;;;4.08;93.60
49194;BME280;35029;50.804;12.866;2023-05-01T04:51:47;97852.97;;;4.22;94.14
49194;BME280;35029;50.804;12.866;2023-05-01T04:54:15;97841.41;;;4.33;93.50
49194;BME280;35029;50.804;12.866;2023-05-01T04:56:40;97841.63;;;4.40;93.60
49194;BME280;35029;50.804;12.866;2023-05-01T04:59:06;97841.25;;;4.35;94.13
49194;BME280;35029;50.804;12.866;2023-05-01T05:01:31;97845.19;;;4.39;94.44
49194;BME280;35029;50.804;12.866;2023-05-01T05:03:57;97826.22;;;4.45;95.19
49194;BME280;35029;50.804;12.866;2023-05-01T05:06:22;97826.00;;;4.65;95.33
49194;BME280;35029;50.804;12.866;2023-05-01T05:08:48;97839.19;;;4.73;95.84
49194;BME280;35029;50.804;12.866;2023-05-01T05:11:17;97819.50;;;4.77;95.80
49194;BME280;35029;50.804;12.866;2023-05-01T05:13:58;97824.53;;;4.97;95.87
49194;BME280;35029;50.804;12.866;2023-05-01T05:16:23;97832.91;;;5.00;96.75
49194;BME280;35029;50.804;12.866;2023-05-01T05:18:49;97833.78;;;5.09;96.94
49194;BME280;35029;50.804;12.866;2023-05-01T05:21:16;97835.00;;;5.23;96.60
49194;BME280;35029;50.804;12.866;2023-05-01T05:23:49;97832.56;;;5.38;96.22
49194;BME280;35029;50.804;12.866;2023-05-01T05:26:15;97838.53;;;5.48;95.96
49194;BME280;35029;50.804;12.866;2023-05-01T05:28:41;97830.50;;;5.58;95.26
49194;BME280;35029;50.804;12.866;2023-05-01T05:31:07;97835.44;;;5.69;95.77
49194;BME280;35029;50.804;12.866;2023-05-01T05:33:33;97824.47;;;5.82;95.90
49194;BME280;35029;50.804;12.866;2023-05-01T05:35:59;97830.03;;;5.96;95.95
49194;BME280;35029;50.804;12.866;2023-05-01T05:38:29;97830.56;;;5.99;96.01
49194;BME280;35029;50.804;12.866;2023-05-01T05:40:56;97829.59;;;6.08;95.48
49194;BME280;35029;50.804;12.866;2023-05-01T05:43:23;97817.56;;;6.22;96.70
49194;BME280;35029;50.804;12.866;2023-05-01T05:45:49;97825.63;;;6.37;96.75
49194;BME280;35029;50.804;12.866;2023-05-01T05:48:15;97796.16;;;6.42;97.50
49194;BME280;35029;50.804;12.866;2023-05-01T05:50:41;97818.63;;;6.77;97.00
49194;BME280;35029;50.804;12.866;2023-05-01T05:53:07;97804.91;;;6.90;96.81
49194;BME280;35029;50.804;12.866;2023-05-01T05:55:34;97800.09;;;7.02;95.05
49194;BME280;35029;50.804;12.866;2023-05-01T05:58:02;97796.09;;;7.15;92.78
49194;BME280;35029;50.804;12.866;2023-05-01T06:00:28;97810.63;;;7.42;90.89
49194;BME280;35029;50.804;12.866;2023-05-01T06:02:55;97801.81;;;7.50;89.00
49194;BME280;35029;50.804;12.866;2023-05-01T06:05:21;97819.16;;;7.75;89.46
49194;BME280;35029;50.804;12.866;2023-05-01T06:07:47;97816.38;;;7.92;87.88
49194;BME280;35029;50.804;12.866;2023-05-01T06:10:13;97817.91;;;8.09;86.12
49194;BME280;35029;50.804;12.866;2023-05-01T06:12:38;97802.84;;;8.18;81.94
49194;BME280;35029;50.804;12.866;2023-05-01T06:15:07;97795.09;;;8.32;81.59
49194;BME280;35029;50.804;12.866;2023-05-01T06:17:37;97793.34;;;8.47;80.53
49194;BME280;35029;50.804;12.866;2023-05-01T06:20:03;97790.06;;;8.60;80.68
49194;BME280;35029;50.804;12.866;2023-05-01T06:22:31;97777.22;;;8.72;80.32
49194;BME280;35029;50.804;12.866;2023-05-01T06:24:59;97785.34;;;8.85;78.50
49194;BME280;35029;50.804;12.866;2023-05-01T06:27:27;97780.56;;;8.95;78.77
49194;BME280;35029;50.804;12.866;2023-05-01T06:29:54;97783.69;;;8.99;77.35
49194;BME280;35029;50.804;12.866;2023-05-01T06:32:19;97785.94;;;9.02;74.69
49194;BME280;35029;50.804;12.866;2023-05-01T06:34:45;97786.88;;;9.09;74.35
49194;BME280;35029;50.804;12.866;2023-05-01T06:37:12;97787.78;;;9.17;74.02
49194;BME280;35029;50.804;12.866;2023-05-01T06:39:38;97761.84;;;9.12;72.72
49194;BME280;35029;50.804;12.866;2023-05-01T06:42:04;97780.69;;;9.39;72.80
49194;BME280;35029;50.804;12.866;2023-05-01T06:44:37;97778.56;;;9.49;68.74
49194;BME280;35029;50.804;12.866;2023-05-01T06:47:03;97780.25;;;9.57;68.28
49194;BME280;35029;50.804;12.866;2023-05-01T06:49:28;97765.84;;;9.59;68.41
49194;BME280;35029;50.804;12.866;2023-05-01T06:51:54;97759.34;;;9.62;66.55
49194;BME280;35029;50.804;12.866;2023-05-01T06:54:19;97770.28;;;9.74;66.68
49194;BME280;35029;50.804;12.866;2023-05-01T06:56:45;97782.25;;;9.91;67.65
49194;BME280;35029;50.804;12.866;2023-05-01T06:59:11;97754.25;;;9.82;67.16
49194;BME280;35029;50.804;12.866;2023-05-01T07:01:37;97764.72;;;9.90;66.90
49194;BME280;35029;50.804;12.866;2023-05-01T07:04:03;97782.78;;;10.08;67.15
49194;BME280;35029;50.804;12.866;2023-05-01T07:06:28;97774.31;;;10.20;67.06
49194;BME280;35029;50.804;12.866;2023-05-01T07:08:54;97762.56;;;10.29;66.92
49194;BME280;35029;50.804;12.866;2023-05-01T07:11:19;97774.94;;;10.43;67.70
49194;BME280;35029;50.804;12.866;2023-05-01T07:13:45;97767.28;;;10.55;68.38
49194;BME280;35029;50.804;12.866;2023-05-01T07:16:11;97745.28;;;10.61;68.00
49194;BME280;35029;50.804;12.866;2023-05-01T07:18:37;97761.72;;;10.92;67.54
49194;BME280;35029;50.804;12.866;2023-05-01T07:21:02;97750.97;;;11.00;64.61
49194;BME280;35029;50.804;12.866;2023-05-01T07:23:28;97734.84;;;10.95;64.10
49194;BME280;35029;50.804;12.866;2023-05-01T07:25:53;97761.06;;;11.25;64.34
49194;BME280;35029;50.804;12.866;2023-05-01T07:28:19;97750.63;;;11.23;62.20
49194;BME280;35029;50.804;12.866;2023-05-01T07:30:46;97756.00;;;11.43;63.52
49194;BME280;35029;50.804;12.866;2023-05-01T07:33:11;97751.34;;;11.52;63.52
49194;BME280;35029;50.804;12.866;2023-05-01T07:35:37;97751.97;;;11.61;63.58
49194;BME280;35029;50.804;12.866;2023-05-01T07:38:02;97746.66;;;11.67;64.08
49194;BME280;35029;50.804;12.866;2023-05-01T07:40:29;97750.56;;;11.78;62.34
49194;BME280;35029;50.804;12.866;2023-05-01T07:42:56;97743.41;;;11.86;61.85
49194;BME280;35029;50.804;12.866;2023-05-01T07:45:22;97725.47;;;11.94;62.83
49194;BME280;35029;50.804;12.866;2023-05-01T07:47:47;97745.06;;;12.27;64.19
49194;BME280;35029;50.804;12.866;2023-05-01T07:50:14;97749.56;;;12.40;60.83
49194;BME280;35029;50.804;12.866;2023-05-01T07:52:39;97732.75;;;12.52;60.38
49194;BME280;35029;50.804;12.866;2023-05-01T07:55:05;97734.94;;;12.76;59.70
49194;BME280;35029;50.804;12.866;2023-05-01T07:57:31;97741.25;;;12.88;59.46
49194;BME280;35029;50.804;12.866;2023-05-01T08:00:01;97730.78;;;13.00;58.87
49194;BME280;35029;50.804;12.866;2023-05-01T08:02:26;97729.72;;;13.08;59.52
49194;BME280;35029;50.804;12.866;2023-05-01T08:04:52;97730.72;;;13.13;58.32
49194;BME280;35029;50.804;12.866;2023-05-01T08:07:18;97726.22;;;13.07;54.91
49194;BME280;35029;50.804;12.866;2023-05-01T08:09:45;97718.22;;;13.14;55.68
49194;BME280;35029;50.804;12.866;2023-05-01T08:12:10;97721.06;;;13.19;57.05
49194;BME280;35029;50.804;12.866;2023-05-01T08:14:36;97714.28;;;13.23;56.16
49194;BME280;35029;50.804;12.866;2023-05-01T08:17:02;97717.72;;;13.37;55.92
49194;BME280;35029;50.804;12.866;2023-05-01T08:19:27;97698.03;;;13.45;55.00
49194;BME280;35029;50.804;12.866;2023-05-01T08:21:53;97715.47;;;13.66;54.58
49194;BME280;35029;50.804;12.866;2023-05-01T08:24:19;97708.91;;;13.68;53.33
49194;BME280;35029;50.804;12.866;2023-05-01T08:26:46;97703.22;;;13.65;53.21
49194;BME280;35029;50.804;12.866;2023-05-01T08:29:12;97713.50;;;13.86;53.68
49194;BME280;35029;50.804;12.866;2023-05-01T08:31:38;97716.44;;;14.03;52.95
49194;BME280;35029;50.804;12.866;2023-05-01T08:34:04;97703.56;;;14.19;52.73
49194;BME280;35029;50.804;12.866;2023-05-01T08:36:30;97693.28;;;14.23;51.34
49194;BME280;35029;50.804;12.866;2023-05-01T08:38:57;97706.72;;;14.34;50.66
49194;BME280;35029;50.804;12.866;2023-05-01T08:41:24;97708.72;;;14.39;51.17
49194;BME280;35029;50.804;12.866;2023-05-01T08:43:52;97691.16;;;14.31;50.99
49194;BME280;35029;50.804;12.866;2023-05-01T08:48:56;97674.72;;;14.34;49.44
49194;BME280;35029;50.804;12.866;2023-05-01T08:51:24;97661.41;;;14.34;50.32
49194;BME280;35029;50.804;12.866;2023-05-01T08:53:52;97700.19;;;14.74;49.52
49194;BME280;35029;50.804;12.866;2023-05-01T08:56:19;97701.84;;;14.87;50.67
49194;BME280;35029;50.804;12.866;2023-05-01T08:58:48;97693.78;;;14.94;49.88
49194;BME280;35029;50.804;12.866;2023-05-01T09:01:14;97696.44;;;14.94;51.16
49194;BME280;35029;50.804;12.866;2023-05-01T09:03:41;97689.84;;;14.96;49.14
49194;BME280;35029;50.804;12.866;2023-05-01T09:06:10;97686.56;;;15.13;50.36
49194;BME280;35029;50.804;12.866;2023-05-01T09:08:37;97691.34;;;15.23;48.60
49194;BME280;35029;50.804;12.866;2023-05-01T09:11:03;97677.22;;;15.03;47.06
49194;BME280;35029;50.804;12.866;2023-05-01T09:13:30;97665.81;;;14.96;48.27
49194;BME280;35029;50.804;12.866;2023-05-01T09:15:56;97688.03;;;15.09;49.75
49194;BME280;35029;50.804;12.866;2023-05-01T09:18:22;97681.75;;;15.03;46.28
49194;BME280;35029;50.804;12.866;2023-05-01T09:20:48;97690.03;;;15.13;47.28
49194;BME280;35029;50.804;12.866;2023-05-01T09:23:15;97672.88;;;15.21;46.38
49194;BME280;35029;50.804;12.866;2023-05-01T09:25:42;97674.66;;;15.27;45.13
49194;BME280;35029;50.804;12.866;2023-05-01T09:28:07;97660.22;;;15.16;46.51
49194;BME280;35029;50.804;12.866;2023-05-01T09:30:37;97678.78;;;15.11;45.88
49194;BME280;35029;50.804;12.866;2023-05-01T09:33:13;97670.38;;;15.08;45.82
49194;BME280;35029;50.804;12.866;2023-05-01T09:35:52;97665.72;;;15.33;47.35
49194;BME280;35029;50.804;12.866;2023-05-01T09:38:26;97665.25;;;15.36;48.08
49194;BME280;35029;50.804;12.866;2023-05-01T09:40:53;97643.41;;;15.28;46.45
49194;BME280;35029;50.804;12.866;2023-05-01T09:43:25;97645.94;;;15.53;46.98
49194;BME280;35029;50.804;12.866;2023-05-01T09:46:08;97641.31;;;15.84;44.90
49194;BME280;35029;50.804;12.866;2023-05-01T09:48:35;97636.34;;;16.11;45.03
49194;BME280;35029;50.804;12.866;2023-05-01T09:51:21;97635.25;;;16.36;46.08
49194;BME280;35029;50.804;12.866;2023-05-01T09:53:47;97627.31;;;16.53;46.59
49194;BME280;35029;50.804;12.866;2023-05-01T09:56:12;97631.16;;;16.45;42.24
49194;BME280;35029;50.804;12.866;2023-05-01T09:58:39;97614.56;;;16.43;44.22
49194;BME280;35029;50.804;12.866;2023-05-01T10:01:05;97607.94;;;16.22;44.44
49194;BME280;35029;50.804;12.866;2023-05-01T10:03:33;97626.44;;;16.23;45.43
49194;BME280;35029;50.804;12.866;2023-05-01T10:05:59;97604.16;;;16.06;43.04
49194;BME280;35029;50.804;12.866;2023-05-01T10:08:47;97614.34;;;16.21;44.36
49194;BME280;35029;50.804;12.866;2023-05-01T10:11:13;97609.00;;;16.21;46.69
49194;BME280;35029;50.804;12.866;2023-05-01T10:13:39;97616.16;;;16.44;44.17
49194;BME280;35029;50.804;12.866;2023-05-01T10:16:05;97608.09;;;16.56;43.57
49194;BME280;35029;50.804;12.866;2023-05-01T10:18:34;97624.09;;;16.80;42.59
49194;BME280;35029;50.804;12.866;2023-05-01T10:20:59;97618.56;;;16.98;43.06
49194;BME280;35029;50.804;12.866;2023-05-01T10:23:25;97605.94;;;17.11;41.76
49194;BME280;35029;50.804;12.866;2023-05-01T10:25:54;97597.09;;;17.10;40.76
49194;BME280;35029;50.804;12.866;2023-05-01T10:28:21;97602.22;;;17.12;41.76
49194;BME280;35029;50.804;12.866;2023-05-01T10:30:48;97620.16;;;17.11;40.76
49194;BME280;35029;50.804;12.866;2023-05-01T10:33:13;97591.50;;;16.83;40.08
49194;BME280;35029;50.804;12.866;2023-05-01T10:35:41;97608.47;;;16.48;41.31
49194;BME280;35029;50.804;12.866;2023-05-01T10:38:14;97587.38;;;16.22;40.31
49194;BME280;35029;50.804;12.866;2023-05-01T10:40:50;97602.56;;;16.46;40.72
49194;BME280;35029;50.804;12.866;2023-05-01T10:43:22;97594.22;;;16.71;41.49
49194;BME280;35029;50.804;12.866;2023-05-01T10:51:12;97562.53;;;17.60;41.33
49194;BME280;35029;50.804;12.866;2023-05-01T10:53:40;97568.34;;;17.90;41.29
49194;BME280;35029;50.804;12.866;2023-05-01T11:01:40;97555.06;;;18.40;39.62
49194;BME280;35029;50.804;12.866;2023-05-01T11:09:37;97544.13;;;18.47;40.16
49194;BME280;35029;50.804;12.866;2023-05-01T11:12:04;97540.69;;;18.79;41.66
49194;BME280;35029;50.804;12.866;2023-05-01T11:20:51;97511.09;;;18.96;41.75
49194;BME280;35029;50.804;12.866;2023-05-01T11:22:57;97512.03;;;19.12;40.24
49194;BME280;35029;50.804;12.866;2023-05-01T11:25:28;97515.91;;;19.26;38.61
49194;BME280;35029;50.804;12.866;2023-05-01T11:28:02;97499.63;;;19.43;36.73
49194;BME280;35029;50.804;12.866;2023-05-01T11:30:40;97499.97;;;19.14;38.59
49194;BME280;35029;50.804;12.866;2023-05-01T11:33:06;97505.63;;;19.18;38.52
49194;BME280;35029;50.804;12.866;2023-05-01T11:35:32;97509.84;;;19.08;38.14
49194;BME280;35029;50.804;12.866;2023-05-01T11:37:59;97509.81;;;19.03;36.31
49194;BME280;35029;50.804;12.866;2023-05-01T11:40:32;97496.47;;;19.14;36.48
49194;BME280;35029;50.804;12.866;2023-05-01T11:43:07;97481.50;;;19.23;38.03
49194;BME280;35029;50.804;12.866;2023-05-01T11:45:34;97480.75;;;19.33;37.99
49194;BME280;35029;50.804;12.866;2023-05-01T11:48:01;97483.06;;;19.62;39.07
49194;BME280;35029;50.804;12.866;2023-05-01T11:50:37;97478.50;;;19.62;36.79
49194;BME280;35029;50.804;12.866;2023-05-01T11:53:11;97477.91;;;19.50;36.41
49194;BME280;35029;50.804;12.866;2023-05-01T11:55:37;97456.41;;;19.55;37.25
49194;BME280;35029;50.804;12.866;2023-05-01T11:58:04;97460.69;;;19.46;34.18
49194;BME280;35029;50.804;12.866;2023-05-01T12:00:35;97466.28;;;19.44;37.31
49194;BME280;35029;50.804;12.866;2023-05-01T12:05:29;97458.69;;;19.79;38.89
49194;BME280;35029;50.804;12.866;2023-05-01T12:10:31;97455.81;;;19.85;37.95
49194;BME280;35029;50.804;12.866;2023-05-01T12:12:58;97453.69;;;19.98;38.09
49194;BME280;35029;50.804;12.866;2023-05-01T12:15:24;97451.66;;;19.72;36.67
49194;BME280;35029;50.804;12.866;2023-05-01T12:17:51;97450.69;;;19.84;35.57
49194;BME280;35029;50.804;12.866;2023-05-01T12:20:42;97447.28;;;19.56;34.18
49194;BME280;35029;50.804;12.866;2023-05-01T12:23:10;97442.81;;;19.29;35.93
49194;BME280;35029;50.804;12.866;2023-05-01T12:25:37;97450.16;;;19.44;37.44
49194;BME280;35029;50.804;12.866;2023-05-01T12:28:18;97448.88;;;19.52;37.39
49194;BME280;35029;50.804;12.866;2023-05-01T12:30:45;97442.53;;;19.73;38.13
49194;BME280;35029;50.804;12.866;2023-05-01T12:33:19;97437.41;;;19.72;38.60
49194;BME280;35029;50.804;12.866;2023-05-01T12:35:47;97440.47;;;19.86;38.02
49194;BME280;35029;50.804;12.866;2023-05-01T12:38:18;97429.75;;;20.01;38.28
49194;BME280;35029;50.804;12.866;2023-05-01T12:40:52;97431.78;;;19.73;37.71
49194;BME280;35029;50.804;12.866;2023-05-01T12:43:42;97425.44;;;19.42;37.60
49194;BME280;35029;50.804;12.866;2023-05-01T12:46:13;97420.88;;;19.00;37.34
49194;BME280;35029;50.804;12.866;2023-05-01T12:48:38;97418.81;;;18.80;40.06
49194;BME280;35029;50.804;12.866;2023-05-01T12:51:05;97426.47;;;18.66;41.11
49194;BME280;35029;50.804;12.866;2023-05-01T12:53:32;97420.09;;;18.72;41.32
49194;BME280;35029;50.804;12.866;2023-05-01T12:55:58;97420.38;;;18.75;41.48
49194;BME280;35029;50.804;12.866;2023-05-01T12:58:36;97416.03;;;18.97;40.44
49194;BME280;35029;50.804;12.866;2023-05-01T13:01:01;97404.41;;;19.29;40.44
49194;BME280;35029;50.804;12.866;2023-05-01T13:03:28;97399.69;;;19.51;38.11
49194;BME280;35029;50.804;12.866;2023-05-01T13:05:59;97392.47;;;19.67;36.28
49194;BME280;35029;50.804;12.866;2023-05-01T13:08:29;97394.09;;;19.68;35.04
49194;BME280;35029;50.804;12.866;2023-05-01T13:10:56;97395.28;;;19.83;37.19
49194;BME280;35029;50.804;12.866;2023-05-01T13:13:27;97384.53;;;19.88;38.16
49194;BME280;35029;50.804;12.866;2023-05-01T13:15:55;97381.88;;;20.03;40.37
49194;BME280;35029;50.804;12.866;2023-05-01T13:18:29;97376.22;;;20.00;34.17
49194;BME280;35029;50.804;12.866;2023-05-01T13:20:55;97374.75;;;19.66;37.91
49194;BME280;35029;50.804;12.866;2023-05-01T13:23:29;97369.81;;;19.48;40.03
49194;BME280;35029;50.804;12.866;2023-05-01T13:25:55;97375.59;;;19.19;40.18
49194;BME280;35029;50.804;12.866;2023-05-01T13:28:21;97377.59;;;18.91;41.50
49194;BME280;35029;50.804;12.866;2023-05-01T13:30:47;97382.78;;;18.75;41.89
49194;BME280;35029;50.804;12.866;2023-05-01T13:33:12;97374.13;;;18.63;43.01
49194;BME280;35029;50.804;12.866;2023-05-01T13:35:38;97378.91;;;18.56;43.08
49194;BME280;35029;50.804;12.866;2023-05-01T13:38:08;97372.13;;;18.48;42.62